sensor_id;sensor_type;location;lat;lon;timestamp;temperature;humidity
1994;DHT22;998;49.906;10.908;2023-12-29T00:02:25;9.50;99.90
1994;DHT22;998;49.906;10.908;2023-12-29T00:04:53;9.50;99.90
1994;DHT22;998;49.906;10.908;2023-12-29T00:07:21;9.60;99.90
1994;DHT22;998;49.906;10.908;2023-12-29T00:09:48;9.50;99.90
1994;DHT22;998;49.906;10.908;2023-12-29T00:12:15;9.60;99.90
1994;DHT22;998;49.906;10.908;2023-12-29T00:14:44;9.60;99.90
1994;DHT22;998;49.906;10.908;2023-12-29T00:17:12;9.60;99.90
1994;DHT22;998;49.906;10.908;2023-12-29T00:19:39;9.60;99.90
1994;DHT22;998;49.906;10.908;2023-12-29T00:22:06;9.50;99.90
1994;DHT22;998;49.906;10.908;2023-12-29T00:24:34;9.50;99.90
1994;DHT22;998;49.906;10.908;2023-12-29T00:27:01;9.50;99.90
1994;DHT22;998;49.906;10.908;2023-12-29T00:29:29;9.50;99.90
1994;DHT22;998;49.906;10.908;2023-12-29T00:32:00;9.50;99.90
1994;DHT22;998;49.906;10.908;2023-12-29T00:34:28;9.50;99.90
1994;DHT22;998;49.906;10.908;2023-12-29T00:36:55;9.50;99.90
1994;DHT22;998;49.906;10.908;2023-12-29T00:39:22;9.50;99.90
1994;DHT22;998;49.906;10.908;2023-12-29T00:41:54;9.50;99.90
1994;DHT22;998;49.906;10.908;2023-12-29T00:44:23;9.50;99.90
1994;DHT22;998;49.906;10.908;2023-12-29T00:46:50;9.50;99.90
1994;DHT22;998;49.906;10.908;2023-12-29T00:49:19;9.50;99.90
1994;DHT22;998;49.906;10.908;2023-12-29T00:51:47;9.50;99.90
1994;DHT22;998;49.906;10.908;2023-12-29T00:54:15;9.50;99.90
1994;DHT22;998;49.906;10.908;2023-12-29T00:56:48;9.50;99.90
1994;DHT22;998;49.906;10.908;2023-12-29T00:59:15;9.50;99.90
1994;DHT22;998;49.906;10.908;2023-12-29T01:01:43;9.50;99.90
1994;DHT22;998;49.906;10.908;2023-12-29T01:04:10;9.40;99.90
1994;DHT22;998;49.906;10.908;2023-12-29T01:06:39;9.40;99.90
1994;DHT22;998;49.906;10.908;2023-12-29T01:09:06;9.50;99.90
1994;DHT22;998;49.906;10.908;2023-12-29T01:11:36;9.50;99.90
1994;DHT22;998;49.906;10.908;2023-12-29T01:14:03;9.50;99.90
1994;DHT22;998;49.906;10.908;2023-12-29T01:16:31;9.50;99.90
1994;DHT22;998;49.906;10.908;2023-12-29T01:18:59;9.50;99.90
1994;DHT22;998;49.906;10.908;2023-12-29T01:21:26;9.50;99.90
1994;DHT22;998;49.906;10.908;2023-12-29T01:23:55;9.50;99.90
1994;DHT22;998;49.906;10.908;2023-12-29T01:26:22;9.60;99.90
1994;DHT22;998;49.906;10.908;2023-12-29T01:28:50;9.50;99.90
1994;DHT22;998;49.906;10.908;2023-12-29T01:31:17;9.50;99.90
1994;DHT22;998;49.906;10.908;2023-12-29T01:33:45;9.60;99.90
1994;DHT22;998;49.906;10.908;2023-12-29T01:36:17;9.60;99.90
1994;DHT22;998;49.906;10.908;2023-12-29T01:38:45;9.60;99.90
1994;DHT22;998;49.906;10.908;2023-12-29T01:41:13;9.60;99.90
1994;DHT22;998;49.906;10.908;2023-12-29T01:46:41;9.60;99.90
1994;DHT22;998;49.906;10.908;2023-12-29T01:49:09;9.50;99.90
1994;DHT22;998;49.906;10.908;2023-12-29T01:51:36;9.60;99.90
1994;DHT22;998;49.906;10.908;2023-12-29T01:54:04;9.60;99.90
1994;DHT22;998;49.906;10.908;2023-12-29T01:56:33;9.60;99.90
1994;DHT22;998;49.906;10.908;2023-12-29T01:59:00;9.60;99.90
1994;DHT22;998;49.906;10.908;2023-12-29T02:01:27;9.60;99.90
1994;DHT22;998;49.906;10.908;2023-12-29T02:03:55;9.60;99.90
1994;DHT22;998;49.906;10.908;2023-12-29T02:06:24;9.60;99.90
1994;DHT22;998;49.906;10.908;2023-12-29T02:08:52;9.60;99.90
1994;DHT22;998;49.906;10.908;2023-12-29T02:11:19;9.60;99.90
1994;DHT22;998;49.906;10.908;2023-12-29T02:13:48;9.50;99.90
1994;DHT22;998;49.906;10.908;2023-12-29T02:16:21;9.60;99.90
1994;DHT22;998;49.906;10.908;2023-12-29T02:18:50;9.60;99.90
1994;DHT22;998;49.906;10.908;2023-12-29T02:21:23;9.60;99.90
1994;DHT22;998;49.906;10.908;2023-12-29T02:23:51;9.50;99.90
1994;DHT22;998;49.906;10.908;2023-12-29T02:26:21;9.50;99.90
1994;DHT22;998;49.906;10.908;2023-12-29T02:28:56;9.50;99.90
1994;DHT22;998;49.906;10.908;2023-12-29T02:31:25;9.50;99.90
1994;DHT22;998;49.906;10.908;2023-12-29T02:33:54;9.50;99.90
1994;DHT22;998;49.906;10.908;2023-12-29T02:36:23;9.50;99.90
1994;DHT22;998;49.906;10.908;2023-12-29T02:38:51;9.40;99.90
1994;DHT22;998;49.906;10.908;2023-12-29T02:41:20;9.40;99.90
1994;DHT22;998;49.906;10.908;2023-12-29T02:43:47;9.40;99.90
1994;DHT22;998;49.906;10.908;2023-12-29T02:46:14;9.40;99.90
1994;DHT22;998;49.906;10.908;2023-12-29T02:48:42;9.30;99.90
1994;DHT22;998;49.906;10.908;2023-12-29T02:51:09;9.30;99.90
1994;DHT22;998;49.906;10.908;2023-12-29T02:53:37;9.30;99.90
1994;DHT22;998;49.906;10.908;2023-12-29T02:56:04;9.30;99.90
1994;DHT22;998;49.906;10.908;2023-12-29T02:58:33;9.30;99.90
1994;DHT22;998;49.906;10.908;2023-12-29T03:01:00;9.30;99.90
1994;DHT22;998;49.906;10.908;2023-12-29T03:03:27;9.30;99.90
1994;DHT22;998;49.906;10.908;2023-12-29T03:05:55;9.30;99.90
1994;DHT22;998;49.906;10.908;2023-12-29T03:08:22;9.30;99.90
1994;DHT22;998;49.906;10.908;2023-12-29T03:10:49;9.20;99.90
1994;DHT22;998;49.906;10.908;2023-12-29T03:13:17;9.30;99.90
1994;DHT22;998;49.906;10.908;2023-12-29T03:15:46;9.30;99.90
1994;DHT22;998;49.906;10.908;2023-12-29T03:18:13;9.30;99.90
1994;DHT22;998;49.906;10.908;2023-12-29T03:20:40;9.20;99.90
1994;DHT22;998;49.906;10.908;2023-12-29T03:23:08;9.30;99.90
1994;DHT22;998;49.906;10.908;2023-12-29T03:25:35;9.30;99.90
1994;DHT22;998;49.906;10.908;2023-12-29T03:28:03;9.20;99.90
1994;DHT22;998;49.906;10.908;2023-12-29T03:30:30;9.30;99.90
1994;DHT22;998;49.906;10.908;2023-12-29T03:32:59;9.30;99.90
1994;DHT22;998;49.906;10.908;2023-12-29T03:35:26;9.30;99.90
1994;DHT22;998;49.906;10.908;2023-12-29T03:37:54;9.30;99.90
1994;DHT22;998;49.906;10.908;2023-12-29T03:40:21;9.30;99.90
1994;DHT22;998;49.906;10.908;2023-12-29T03:42:48;9.30;99.90
1994;DHT22;998;49.906;10.908;2023-12-29T03:45:16;9.30;99.90
1994;DHT22;998;49.906;10.908;2023-12-29T03:47:43;9.30;99.90
1994;DHT22;998;49.906;10.908;2023-12-29T03:50:12;9.20;99.90
1994;DHT22;998;49.906;10.908;2023-12-29T03:52:40;9.20;99.90
1994;DHT22;998;49.906;10.908;2023-12-29T03:55:07;9.20;99.90
1994;DHT22;998;49.906;10.908;2023-12-29T03:57:36;9.20;99.90
1994;DHT22;998;49.906;10.908;2023-12-29T04:00:05;9.20;99.90
1994;DHT22;998;49.906;10.908;2023-12-29T04:02:33;9.10;99.90
1994;DHT22;998;49.906;10.908;2023-12-29T04:05:00;9.10;99.90
1994;DHT22;998;49.906;10.908;2023-12-29T04:07:29;9.10;99.90
1994;DHT22;998;49.906;10.908;2023-12-29T04:09:57;9.10;99.90
1994;DHT22;998;49.906;10.908;2023-12-29T04:12:24;9.20;99.90
1994;DHT22;998;49.906;10.908;2023-12-29T04:14:51;9.20;99.90
1994;DHT22;998;49.906;10.908;2023-12-29T04:17:19;9.20;99.90
1994;DHT22;998;49.906;10.908;2023-12-29T04:19:46;9.20;99.90
1994;DHT22;998;49.906;10.908;2023-12-29T04:22:13;9.10;99.90
1994;DHT22;998;49.906;10.908;2023-12-29T04:24:42;9.20;99.90
1994;DHT22;998;49.906;10.908;2023-12-29T04:27:10;9.20;99.90
1994;DHT22;998;49.906;10.908;2023-12-29T04:29:37;9.20;99.90
1994;DHT22;998;49.906;10.908;2023-12-29T04:32:05;9.20;99.90
1994;DHT22;998;49.906;10.908;2023-12-29T04:34:32;9.10;99.90
1994;DHT22;998;49.906;10.908;2023-12-29T04:37:00;9.20;99.90
1994;DHT22;998;49.906;10.908;2023-12-29T04:39:27;9.10;99.90
1994;DHT22;998;49.906;10.908;2023-12-29T04:41:56;9.20;99.90
1994;DHT22;998;49.906;10.908;2023-12-29T04:44:23;9.10;99.90
1994;DHT22;998;49.906;10.908;2023-12-29T04:46:51;9.10;99.90
1994;DHT22;998;49.906;10.908;2023-12-29T04:49:18;9.10;99.90
1994;DHT22;998;49.906;10.908;2023-12-29T04:51:45;9.10;99.90
1994;DHT22;998;49.906;10.908;2023-12-29T04:54:14;9.10;99.90
1994;DHT22;998;49.906;10.908;2023-12-29T04:56:41;9.10;99.90
1994;DHT22;998;49.906;10.908;2023-12-29T04:59:10;9.10;99.90
1994;DHT22;998;49.906;10.908;2023-12-29T05:01:38;9.10;99.90
1994;DHT22;998;49.906;10.908;2023-12-29T05:04:05;9.10;99.90
1994;DHT22;998;49.906;10.908;2023-12-29T05:06:32;9.00;99.90
1994;DHT22;998;49.906;10.908;2023-12-29T05:09:00;9.00;99.90
1994;DHT22;998;49.906;10.908;2023-12-29T05:11:27;9.00;99.90
1994;DHT22;998;49.906;10.908;2023-12-29T05:13:55;9.00;99.90
1994;DHT22;998;49.906;10.908;2023-12-29T05:16:23;9.00;99.90
1994;DHT22;998;49.906;10.908;2023-12-29T05:18:51;9.00;99.90
1994;DHT22;998;49.906;10.908;2023-12-29T05:21:18;9.00;99.90
1994;DHT22;998;49.906;10.908;2023-12-29T05:23:46;8.90;99.90
1994;DHT22;998;49.906;10.908;2023-12-29T05:26:14;8.90;99.90
1994;DHT22;998;49.906;10.908;2023-12-29T05:28:42;8.90;99.90
1994;DHT22;998;49.906;10.908;2023-12-29T05:31:09;8.90;99.90
1994;DHT22;998;49.906;10.908;2023-12-29T05:33:38;8.90;99.90
1994;DHT22;998;49.906;10.908;2023-12-29T05:36:09;8.90;99.90
1994;DHT22;998;49.906;10.908;2023-12-29T05:38:37;8.80;99.90
1994;DHT22;998;49.906;10.908;2023-12-29T05:41:05;8.80;99.90
1994;DHT22;998;49.906;10.908;2023-12-29T05:43:33;8.80;99.90
1994;DHT22;998;49.906;10.908;2023-12-29T05:46:01;8.80;99.90
1994;DHT22;998;49.906;10.908;2023-12-29T05:48:28;8.90;99.90
1994;DHT22;998;49.906;10.908;2023-12-29T05:50:57;8.80;99.90
1994;DHT22;998;49.906;10.908;2023-12-29T05:53:24;8.90;99.90
1994;DHT22;998;49.906;10.908;2023-12-29T05:55:52;8.90;99.90
1994;DHT22;998;49.906;10.908;2023-12-29T05:58:19;8.80;99.90
1994;DHT22;998;49.906;10.908;2023-12-29T06:00:47;8.80;99.90
1994;DHT22;998;49.906;10.908;2023-12-29T06:03:14;8.80;99.90
1994;DHT22;998;49.906;10.908;2023-12-29T06:05:41;8.80;99.90
1994;DHT22;998;49.906;10.908;2023-12-29T06:08:10;8.80;99.90
1994;DHT22;998;49.906;10.908;2023-12-29T06:10:37;8.70;99.90
1994;DHT22;998;49.906;10.908;2023-12-29T06:13:05;8.70;99.90
1994;DHT22;998;49.906;10.908;2023-12-29T06:15:32;8.70;99.90
1994;DHT22;998;49.906;10.908;2023-12-29T06:18:00;8.70;99.90
1994;DHT22;998;49.906;10.908;2023-12-29T06:20:28;8.70;99.90
1994;DHT22;998;49.906;10.908;2023-12-29T06:22:55;8.70;99.90
1994;DHT22;998;49.906;10.908;2023-12-29T06:25:24;8.70;99.90
1994;DHT22;998;49.906;10.908;2023-12-29T06:27:53;8.70;99.90
1994;DHT22;998;49.906;10.908;2023-12-29T06:30:21;8.70;99.90
1994;DHT22;998;49.906;10.908;2023-12-29T06:32:48;8.60;99.90
1994;DHT22;998;49.906;10.908;2023-12-29T06:35:17;8.60;99.90
1994;DHT22;998;49.906;10.908;2023-12-29T06:37:45;8.60;99.90
1994;DHT22;998;49.906;10.908;2023-12-29T06:40:12;8.60;99.90
1994;DHT22;998;49.906;10.908;2023-12-29T06:42:41;8.60;99.90
1994;DHT22;998;49.906;10.908;2023-12-29T06:45:09;8.60;99.90
1994;DHT22;998;49.906;10.908;2023-12-29T06:47:36;8.60;99.90
1994;DHT22;998;49.906;10.908;2023-12-29T06:50:05;8.60;99.90
1994;DHT22;998;49.906;10.908;2023-12-29T06:52:32;8.50;99.90
1994;DHT22;998;49.906;10.908;2023-12-29T06:55:00;8.50;99.90
1994;DHT22;998;49.906;10.908;2023-12-29T06:57:28;8.50;99.90
1994;DHT22;998;49.906;10.908;2023-12-29T06:59:57;8.50;99.90
1994;DHT22;998;49.906;10.908;2023-12-29T07:02:25;8.50;99.90
1994;DHT22;998;49.906;10.908;2023-12-29T07:04:52;8.50;99.90
1994;DHT22;998;49.906;10.908;2023-12-29T07:07:19;8.60;99.90
1994;DHT22;998;49.906;10.908;2023-12-29T07:09:47;8.60;99.90
1994;DHT22;998;49.906;10.908;2023-12-29T07:12:14;8.60;99.90
1994;DHT22;998;49.906;10.908;2023-12-29T07:14:42;8.60;99.90
1994;DHT22;998;49.906;10.908;2023-12-29T07:17:11;8.60;99.90
1994;DHT22;998;49.906;10.908;2023-12-29T07:19:39;8.60;99.90
1994;DHT22;998;49.906;10.908;2023-12-29T07:22:06;8.70;99.90
1994;DHT22;998;49.906;10.908;2023-12-29T07:24:34;8.70;99.90
1994;DHT22;998;49.906;10.908;2023-12-29T07:27:02;8.80;99.90
1994;DHT22;998;49.906;10.908;2023-12-29T07:29:30;8.80;99.90
1994;DHT22;998;49.906;10.908;2023-12-29T07:31:57;8.80;99.90
1994;DHT22;998;49.906;10.908;2023-12-29T07:34:26;8.90;99.90
1994;DHT22;998;49.906;10.908;2023-12-29T07:36:56;8.90;99.90
1994;DHT22;998;49.906;10.908;2023-12-29T07:39:24;8.90;99.90
1994;DHT22;998;49.906;10.908;2023-12-29T07:41:51;8.90;99.90
1994;DHT22;998;49.906;10.908;2023-12-29T07:44:19;8.90;99.90
1994;DHT22;998;49.906;10.908;2023-12-29T07:46:46;8.90;99.90
1994;DHT22;998;49.906;10.908;2023-12-29T07:49:14;8.90;99.90
1994;DHT22;998;49.906;10.908;2023-12-29T07:51:46;9.00;99.90
1994;DHT22;998;49.906;10.908;2023-12-29T07:54:13;9.00;99.90
1994;DHT22;998;49.906;10.908;2023-12-29T07:56:41;9.00;99.90
1994;DHT22;998;49.906;10.908;2023-12-29T07:59:08;9.10;99.90
1994;DHT22;998;49.906;10.908;2023-12-29T08:01:36;9.10;99.90
1994;DHT22;998;49.906;10.908;2023-12-29T08:04:04;9.10;99.90
1994;DHT22;998;49.906;10.908;2023-12-29T08:06:32;9.10;99.90
1994;DHT22;998;49.906;10.908;2023-12-29T08:09:01;9.20;99.90
1994;DHT22;998;49.906;10.908;2023-12-29T08:11:29;9.20;99.90
1994;DHT22;998;49.906;10.908;2023-12-29T08:13:56;9.30;99.90
1994;DHT22;998;49.906;10.908;2023-12-29T08:16:23;9.30;99.90
1994;DHT22;998;49.906;10.908;2023-12-29T08:18:52;9.30;99.90
1994;DHT22;998;49.906;10.908;2023-12-29T08:21:20;9.30;99.90
1994;DHT22;998;49.906;10.908;2023-12-29T08:23:48;9.30;99.90
1994;DHT22;998;49.906;10.908;2023-12-29T08:26:17;9.30;99.90
1994;DHT22;998;49.906;10.908;2023-12-29T08:28:44;9.40;99.90
1994;DHT22;998;49.906;10.908;2023-12-29T08:31:12;9.40;99.90
1994;DHT22;998;49.906;10.908;2023-12-29T08:33:39;9.40;99.90
1994;DHT22;998;49.906;10.908;2023-12-29T08:36:07;9.40;99.90
1994;DHT22;998;49.906;10.908;2023-12-29T08:38:34;9.40;99.90
1994;DHT22;998;49.906;10.908;2023-12-29T08:41:02;9.40;99.90
1994;DHT22;998;49.906;10.908;2023-12-29T08:43:31;9.40;99.90
1994;DHT22;998;49.906;10.908;2023-12-29T08:46:01;9.40;99.90
1994;DHT22;998;49.906;10.908;2023-12-29T08:48:29;9.40;99.90
1994;DHT22;998;49.906;10.908;2023-12-29T08:50:57;9.40;99.90
1994;DHT22;998;49.906;10.908;2023-12-29T08:53:24;9.40;99.90
1994;DHT22;998;49.906;10.908;2023-12-29T08:55:52;9.40;99.90
1994;DHT22;998;49.906;10.908;2023-12-29T08:58:19;9.40;99.90
1994;DHT22;998;49.906;10.908;2023-12-29T09:00:48;9.40;99.90
1994;DHT22;998;49.906;10.908;2023-12-29T09:03:16;9.40;99.90
1994;DHT22;998;49.906;10.908;2023-12-29T09:05:43;9.40;99.90
1994;DHT22;998;49.906;10.908;2023-12-29T09:08:10;9.40;99.90
1994;DHT22;998;49.906;10.908;2023-12-29T09:10:38;10.40;99.90
1994;DHT22;998;49.906;10.908;2023-12-29T09:13:05;9.40;99.90
1994;DHT22;998;49.906;10.908;2023-12-29T09:15:33;9.40;99.90
1994;DHT22;998;49.906;10.908;2023-12-29T09:18:02;9.40;99.90
1994;DHT22;998;49.906;10.908;2023-12-29T09:20:29;9.50;99.90
1994;DHT22;998;49.906;10.908;2023-12-29T09:22:57;9.50;99.90
1994;DHT22;998;49.906;10.908;2023-12-29T09:25:25;9.50;99.90
1994;DHT22;998;49.906;10.908;2023-12-29T09:27:53;9.50;99.90
1994;DHT22;998;49.906;10.908;2023-12-29T09:30:20;9.60;99.90
1994;DHT22;998;49.906;10.908;2023-12-29T09:32:48;9.60;99.90
1994;DHT22;998;49.906;10.908;2023-12-29T09:35:17;9.60;99.90
1994;DHT22;998;49.906;10.908;2023-12-29T09:37:47;9.60;99.90
1994;DHT22;998;49.906;10.908;2023-12-29T09:40:14;9.70;99.90
1994;DHT22;998;49.906;10.908;2023-12-29T09:42:43;9.60;99.90
1994;DHT22;998;49.906;10.908;2023-12-29T09:45:12;9.70;99.90
1994;DHT22;998;49.906;10.908;2023-12-29T09:47:41;9.60;99.90
1994;DHT22;998;49.906;10.908;2023-12-29T09:50:11;9.60;99.90
1994;DHT22;998;49.906;10.908;2023-12-29T09:52:40;9.60;99.90
1994;DHT22;998;49.906;10.908;2023-12-29T09:55:09;9.60;99.90
1994;DHT22;998;49.906;10.908;2023-12-29T09:57:37;9.70;99.90
1994;DHT22;998;49.906;10.908;2023-12-29T10:00:06;9.70;99.90
1994;DHT22;998;49.906;10.908;2023-12-29T10:02:37;9.70;99.90
1994;DHT22;998;49.906;10.908;2023-12-29T10:05:05;9.70;99.90
1994;DHT22;998;49.906;10.908;2023-12-29T10:07:36;9.80;99.90
1994;DHT22;998;49.906;10.908;2023-12-29T10:10:06;9.90;99.90
1994;DHT22;998;49.906;10.908;2023-12-29T10:12:35;9.90;99.90
1994;DHT22;998;49.906;10.908;2023-12-29T10:15:06;10.00;99.90
1994;DHT22;998;49.906;10.908;2023-12-29T10:17:41;10.00;99.90
1994;DHT22;998;49.906;10.908;2023-12-29T10:20:16;10.10;99.90
1994;DHT22;998;49.906;10.908;2023-12-29T10:22:51;10.10;99.90
1994;DHT22;998;49.906;10.908;2023-12-29T10:25:21;10.20;99.90
1994;DHT22;998;49.906;10.908;2023-12-29T10:27:49;10.30;99.90
1994;DHT22;998;49.906;10.908;2023-12-29T10:30:16;10.30;99.90
1994;DHT22;998;49.906;10.908;2023-12-29T10:32:49;10.30;99.90
1994;DHT22;998;49.906;10.908;2023-12-29T10:35:17;10.40;99.90
1994;DHT22;998;49.906;10.908;2023-12-29T10:37:45;10.50;99.90
1994;DHT22;998;49.906;10.908;2023-12-29T10:40:17;10.60;99.90
1994;DHT22;998;49.906;10.908;2023-12-29T10:42:53;10.80;99.90
1994;DHT22;998;49.906;10.908;2023-12-29T10:45:21;10.90;99.90
1994;DHT22;998;49.906;10.908;2023-12-29T10:47:50;11.00;99.90
1994;DHT22;998;49.906;10.908;2023-12-29T10:50:18;11.10;99.90
1994;DHT22;998;49.906;10.908;2023-12-29T10:52:45;11.10;99.90
1994;DHT22;998;49.906;10.908;2023-12-29T10:55:12;11.10;99.90
1994;DHT22;998;49.906;10.908;2023-12-29T10:57:40;11.10;99.90
1994;DHT22;998;49.906;10.908;2023-12-29T11:00:11;11.00;99.90
1994;DHT22;998;49.906;10.908;2023-12-29T11:02:39;11.00;99.90
1994;DHT22;998;49.906;10.908;2023-12-29T11:05:08;11.10;99.90
1994;DHT22;998;49.906;10.908;2023-12-29T11:07:38;11.00;99.90
1994;DHT22;998;49.906;10.908;2023-12-29T11:10:07;11.10;99.90
1994;DHT22;998;49.906;10.908;2023-12-29T11:12:36;11.20;99.90
1994;DHT22;998;49.906;10.908;2023-12-29T11:15:05;11.30;99.90
1994;DHT22;998;49.906;10.908;2023-12-29T11:17:35;11.30;99.90
1994;DHT22;998;49.906;10.908;2023-12-29T11:20:04;11.30;99.90
1994;DHT22;998;49.906;10.908;2023-12-29T11:22:32;11.20;99.90
1994;DHT22;998;49.906;10.908;2023-12-29T11:25:00;11.10;99.90
1994;DHT22;998;49.906;10.908;2023-12-29T11:27:28;11.10;99.90
1994;DHT22;998;49.906;10.908;2023-12-29T11:29:58;11.00;99.90
1994;DHT22;998;49.906;10.908;2023-12-29T11:32:37;10.90;99.90
1994;DHT22;998;49.906;10.908;2023-12-29T11:35:13;10.90;99.90
1994;DHT22;998;49.906;10.908;2023-12-29T11:41:09;10.80;99.90
1994;DHT22;998;49.906;10.908;2023-12-29T11:43:37;10.80;99.90
1994;DHT22;998;49.906;10.908;2023-12-29T11:46:04;10.70;99.90
1994;DHT22;998;49.906;10.908;2023-12-29T11:48:54;10.70;99.90
1994;DHT22;998;49.906;10.908;2023-12-29T11:51:29;10.80;99.90
1994;DHT22;998;49.906;10.908;2023-12-29T11:53:56;10.80;99.90
1994;DHT22;998;49.906;10.908;2023-12-29T11:56:23;10.90;99.90
1994;DHT22;998;49.906;10.908;2023-12-29T11:58:50;10.90;99.90
1994;DHT22;998;49.906;10.908;2023-12-29T12:01:33;10.90;99.90
1994;DHT22;998;49.906;10.908;2023-12-29T12:04:03;10.90;99.90
1994;DHT22;998;49.906;10.908;2023-12-29T12:06:37;10.90;99.90
1994;DHT22;998;49.906;10.908;2023-12-29T12:09:16;10.80;99.90
1994;DHT22;998;49.906;10.908;2023-12-29T12:11:44;10.80;99.90
1994;DHT22;998;49.906;10.908;2023-12-29T12:14:45;10.80;99.90
1994;DHT22;998;49.906;10.908;2023-12-29T12:17:14;10.80;99.90
1994;DHT22;998;49.906;10.908;2023-12-29T12:19:57;10.80;99.90
1994;DHT22;998;49.906;10.908;2023-12-29T12:22:25;10.80;99.90
1994;DHT22;998;49.906;10.908;2023-12-29T12:24:56;10.80;99.90
1994;DHT22;998;49.906;10.908;2023-12-29T12:27:25;10.80;99.90
1994;DHT22;998;49.906;10.908;2023-12-29T12:29:56;10.80;99.90
1994;DHT22;998;49.906;10.908;2023-12-29T12:32:25;10.70;99.90
1994;DHT22;998;49.906;10.908;2023-12-29T12:34:55;10.70;99.90
1994;DHT22;998;49.906;10.908;2023-12-29T12:37:23;10.80;99.90
1994;DHT22;998;49.906;10.908;2023-12-29T12:39:51;10.90;99.90
1994;DHT22;998;49.906;10.908;2023-12-29T12:42:19;10.90;99.90
1994;DHT22;998;49.906;10.908;2023-12-29T12:44:53;10.90;99.90
1994;DHT22;998;49.906;10.908;2023-12-29T12:47:27;10.90;99.90
1994;DHT22;998;49.906;10.908;2023-12-29T12:50:00;10.90;99.90
1994;DHT22;998;49.906;10.908;2023-12-29T12:52:31;10.90;99.90
1994;DHT22;998;49.906;10.908;2023-12-29T12:54:59;10.90;99.90
1994;DHT22;998;49.906;10.908;2023-12-29T12:57:27;10.90;99.90
1994;DHT22;998;49.906;10.908;2023-12-29T12:59:54;10.90;99.90
1994;DHT22;998;49.906;10.908;2023-12-29T13:02:23;10.80;99.90
1994;DHT22;998;49.906;10.908;2023-12-29T13:04:51;10.80;99.90
1994;DHT22;998;49.906;10.908;2023-12-29T13:07:20;10.80;99.90
1994;DHT22;998;49.906;10.908;2023-12-29T13:09:49;10.80;99.90
1994;DHT22;998;49.906;10.908;2023-12-29T13:12:18;10.90;99.90
1994;DHT22;998;49.906;10.908;2023-12-29T13:14:46;10.90;99.90
1994;DHT22;998;49.906;10.908;2023-12-29T13:17:14;10.90;99.90
1994;DHT22;998;49.906;10.908;2023-12-29T13:19:42;10.80;99.90
1994;DHT22;998;49.906;10.908;2023-12-29T13:22:11;10.80;99.90
1994;DHT22;998;49.906;10.908;2023-12-29T13:24:45;10.90;99.90
1994;DHT22;998;49.906;10.908;2023-12-29T13:27:13;10.90;99.90
1994;DHT22;998;49.906;10.908;2023-12-29T13:29:42;10.80;99.90
1994;DHT22;998;49.906;10.908;2023-12-29T13:32:12;10.80;99.90
1994;DHT22;998;49.906;10.908;2023-12-29T13:34:51;10.90;99.90
1994;DHT22;998;49.906;10.908;2023-12-29T13:37:24;10.90;99.90
1994;DHT22;998;49.906;10.908;2023-12-29T13:39:59;10.90;99.90
1994;DHT22;998;49.906;10.908;2023-12-29T13:42:30;10.90;99.90
1994;DHT22;998;49.906;10.908;2023-12-29T13:45:01;10.90;99.90
1994;DHT22;998;49.906;10.908;2023-12-29T13:47:29;10.80;99.90
1994;DHT22;998;49.906;10.908;2023-12-29T13:49:57;10.80;99.90
1994;DHT22;998;49.906;10.908;2023-12-29T13:52:25;10.90;99.90
1994;DHT22;998;49.906;10.908;2023-12-29T13:54:54;11.00;99.90
1994;DHT22;998;49.906;10.908;2023-12-29T13:57:30;10.90;99.90
1994;DHT22;998;49.906;10.908;2023-12-29T13:59:58;10.90;99.90
1994;DHT22;998;49.906;10.908;2023-12-29T14:02:40;11.00;99.90
1994;DHT22;998;49.906;10.908;2023-12-29T14:05:11;10.90;99.90
1994;DHT22;998;49.906;10.908;2023-12-29T14:07:46;10.90;99.90
1994;DHT22;998;49.906;10.908;2023-12-29T14:10:15;11.00;99.90
1994;DHT22;998;49.906;10.908;2023-12-29T14:12:43;10.90;99.90
1994;DHT22;998;49.906;10.908;2023-12-29T14:15:10;10.90;99.90
1994;DHT22;998;49.906;10.908;2023-12-29T14:17:39;10.90;99.90
1994;DHT22;998;49.906;10.908;2023-12-29T14:20:07;10.90;99.90
1994;DHT22;998;49.906;10.908;2023-12-29T14:22:35;10.90;99.90
1994;DHT22;998;49.906;10.908;2023-12-29T14:25:05;10.90;99.90
1994;DHT22;998;49.906;10.908;2023-12-29T14:27:35;10.90;99.90
1994;DHT22;998;49.906;10.908;2023-12-29T14:30:17;10.90;99.90
1994;DHT22;998;49.906;10.908;2023-12-29T14:32:45;10.90;99.90
1994;DHT22;998;49.906;10.908;2023-12-29T14:35:13;10.90;99.90
1994;DHT22;998;49.906;10.908;2023-12-29T14:37:41;10.90;99.90
1994;DHT22;998;49.906;10.908;2023-12-29T14:40:11;10.90;99.90
1994;DHT22;998;49.906;10.908;2023-12-29T14:42:40;10.90;99.90
1994;DHT22;998;49.906;10.908;2023-12-29T14:45:09;11.00;99.90
1994;DHT22;998;49.906;10.908;2023-12-29T14:47:36;10.90;99.90
1994;DHT22;998;49.906;10.908;2023-12-29T14:50:04;10.90;99.90
1994;DHT22;998;49.906;10.908;2023-12-29T14:52:32;10.90;99.90
1994;DHT22;998;49.906;10.908;2023-12-29T14:54:59;10.90;99.90
1994;DHT22;998;49.906;10.908;2023-12-29T14:57:27;10.90;99.90
1994;DHT22;998;49.906;10.908;2023-12-29T14:59:56;10.90;99.90
1994;DHT22;998;49.906;10.908;2023-12-29T15:02:23;10.90;99.90
1994;DHT22;998;49.906;10.908;2023-12-29T15:04:50;10.90;99.90
1994;DHT22;998;49.906;10.908;2023-12-29T15:07:18;10.80;99.90
1994;DHT22;998;49.906;10.908;2023-12-29T15:09:45;10.80;99.90
1994;DHT22;998;49.906;10.908;2023-12-29T15:12:12;10.80;99.90
1994;DHT22;998;49.906;10.908;2023-12-29T15:14:40;10.80;99.90
1994;DHT22;998;49.906;10.908;2023-12-29T15:17:09;10.80;99.90
1994;DHT22;998;49.906;10.908;2023-12-29T15:19:36;10.80;99.90
1994;DHT22;998;49.906;10.908;2023-12-29T15:22:03;10.80;99.90
1994;DHT22;998;49.906;10.908;2023-12-29T15:24:31;10.80;99.90
1994;DHT22;998;49.906;10.908;2023-12-29T15:26:58;10.70;99.90
1994;DHT22;998;49.906;10.908;2023-12-29T15:29:26;10.70;99.90
1994;DHT22;998;49.906;10.908;2023-12-29T15:31:55;10.70;99.90
1994;DHT22;998;49.906;10.908;2023-12-29T15:34:24;10.70;99.90
1994;DHT22;998;49.906;10.908;2023-12-29T15:36:51;10.70;99.90
1994;DHT22;998;49.906;10.908;2023-12-29T15:39:18;10.80;99.90
1994;DHT22;998;49.906;10.908;2023-12-29T15:41:47;10.70;99.90
1994;DHT22;998;49.906;10.908;2023-12-29T15:44:14;10.70;99.90
1994;DHT22;998;49.906;10.908;2023-12-29T15:46:41;10.70;99.90
1994;DHT22;998;49.906;10.908;2023-12-29T15:49:09;10.70;99.90
1994;DHT22;998;49.906;10.908;2023-12-29T15:51:37;10.70;99.90
1994;DHT22;998;49.906;10.908;2023-12-29T15:54:05;10.70;99.90
1994;DHT22;998;49.906;10.908;2023-12-29T15:56:32;10.70;99.90
1994;DHT22;998;49.906;10.908;2023-12-29T15:58:59;10.70;99.90
1994;DHT22;998;49.906;10.908;2023-12-29T16:01:27;10.70;99.90
1994;DHT22;998;49.906;10.908;2023-12-29T16:03:54;10.70;99.90
1994;DHT22;998;49.906;10.908;2023-12-29T16:06:24;10.60;99.90
1994;DHT22;998;49.906;10.908;2023-12-29T16:08:53;10.70;99.90
1994;DHT22;998;49.906;10.908;2023-12-29T16:11:22;10.70;99.90
1994;DHT22;998;49.906;10.908;2023-12-29T16:13:52;10.70;99.90
1994;DHT22;998;49.906;10.908;2023-12-29T16:16:19;10.70;99.90
1994;DHT22;998;49.906;10.908;2023-12-29T16:18:51;10.60;99.90
1994;DHT22;998;49.906;10.908;2023-12-29T16:21:19;10.60;99.90
1994;DHT22;998;49.906;10.908;2023-12-29T16:23:46;10.60;99.90
1994;DHT22;998;49.906;10.908;2023-12-29T16:26:15;10.60;99.90
1994;DHT22;998;49.906;10.908;2023-12-29T16:28:42;10.60;99.90